Muzaffargarh Weather



Muzaffargarh's Current Weather

Temprature 21o smoke

smoke

Rain: 0 %

Min Temprature21o
Max Temprature21o
Humidity60
Wind Speed2.1 m/h
Sun Rise06:26:10
Sun Set17:31:39
Current Time: 28-Oct-2020 04:03:58
Lat/Lon: 30.08, 71.19




Muzaffargarh's Geo Location



Muzaffargarh's Weather Forecast

Time Overall Temp Min Temp Max Temp Humidity Wind Speed Rain
28-Oct-2020 (Wed)
05:00:00 clear sky 19.510 17.940 19.510 43 1.75 m/h 0 %
08:00:00 clear sky 22.440 22.440 22.840 28 1.56 m/h 0 %
11:00:00 clear sky 30.440 30.440 31.090 15 2.41 m/h 0 %
14:00:00 clear sky 34.070 34.070 34.180 10 2.44 m/h 0 %
17:00:00 clear sky 29.900 29.900 29.900 13 0.96 m/h 0 %
20:00:00 clear sky 23.770 23.770 23.770 19 1.3 m/h 0 %
23:00:00 clear sky 21.920 21.920 21.920 21 2.46 m/h 0 %
29-Oct-2020 (Thu)
02:00:00 clear sky 20.020 20.020 20.020 24 1.52 m/h 0 %
05:00:00 clear sky 18.680 18.680 18.680 26 1.77 m/h 0 %
08:00:00 clear sky 23.090 23.090 23.090 20 3.12 m/h 0 %
11:00:00 clear sky 31.220 31.220 31.220 12 4.21 m/h 0 %
14:00:00 clear sky 33.880 33.880 33.880 10 3.88 m/h 0 %
17:00:00 clear sky 30.100 30.100 30.100 13 3.4 m/h 0 %
20:00:00 clear sky 24.740 24.740 24.740 18 3.81 m/h 0 %
23:00:00 clear sky 20.940 20.940 20.940 22 1.1 m/h 0 %
30-Oct-2020 (Fri)
02:00:00 clear sky 20.830 20.830 20.830 22 2.8 m/h 0 %
05:00:00 clear sky 18.760 18.760 18.760 26 1.77 m/h 0 %
08:00:00 clear sky 23.460 23.460 23.460 19 3.77 m/h 0 %
11:00:00 clear sky 31.780 31.780 31.780 12 4.2 m/h 0 %
14:00:00 clear sky 34.140 34.140 34.140 10 3.91 m/h 0 %
17:00:00 clear sky 30.150 30.150 30.150 13 3.13 m/h 0 %
20:00:00 clear sky 24.700 24.700 24.700 18 2.9 m/h 0 %
23:00:00 clear sky 22.410 22.410 22.410 20 1.96 m/h 0 %
31-Oct-2020 (Sat)
02:00:00 clear sky 19.090 19.090 19.090 25 1.02 m/h 0 %
05:00:00 clear sky 19.410 19.410 19.410 24 1.85 m/h 0 %
08:00:00 clear sky 24.040 24.040 24.040 17 1.07 m/h 0 %
11:00:00 clear sky 32.520 32.520 32.520 10 0.06 m/h 0 %
14:00:00 clear sky 34.320 34.320 34.320 9 1.53 m/h 0 %
17:00:00 clear sky 29.570 29.570 29.570 12 1.07 m/h 0 %
20:00:00 clear sky 23.830 23.830 23.830 18 1.99 m/h 0 %
23:00:00 clear sky 20.950 20.950 20.950 21 1.86 m/h 0 %
01-Nov-2020 (Sun)
02:00:00 clear sky 19.980 19.980 19.980 23 2.09 m/h 0 %
05:00:00 clear sky 17.180 17.180 17.180 27 0.97 m/h 0 %
08:00:00 clear sky 22.330 22.330 22.330 20 1.52 m/h 0 %
11:00:00 clear sky 31.300 31.300 31.300 11 1.29 m/h 0 %
14:00:00 clear sky 34.370 34.370 34.370 9 2.19 m/h 0 %
17:00:00 clear sky 29.270 29.270 29.270 12 1.46 m/h 0 %
20:00:00 clear sky 23.460 23.460 23.460 17 2.33 m/h 0 %
23:00:00 clear sky 20.260 20.260 20.260 22 1.4 m/h 0 %
02-Nov-2020 (Mon)
02:00:00 clear sky 18.290 18.290 18.290 25 0.19 m/h 0 %

Famous Cities (60)